Etusivu
METAR-TAF:

METAR-TAF

Lentoasemat :

Karachi, Pakistan

Leveyspiiri: 24-54N, Pituuspiiri: 067-08E, korkeus merenpinnasta: 21 m

Tämänhetkinen sää

Tämä raportti tehtiin 26 minuuttia sitten, kello 10.55 UTC
Tuuli 5 kn lounaasta
Lämpötila 28°C
Kosteus 14%
Ilmanpaine 1013 hPa
Näkyvyys: 6000 m

METAR: OPKC 231055Z 23005KT 6000 NSC 28/M02 Q1013 NOSIG

Aika: 16:21 (11:21 UTC)

Sääennuste

Tämä raportti tehtiin 7 tuntia ja 21 minuuttia sitten, kello 04.00 UTC
Ennuste voimassa 23. päivästä klo 06 UTC - 24. päivään klo 12 UTC
Tuuli 7 kn lännestä
Näkyvyys: 6000 m
Tulossa
23. päivästä klo 13 UTC - 23. päivään klo 15 UTC
Tuuli 5 kn luoteesta
Näkyvyys: 5000 m
usvaa
Ajoittain
24. päivästä klo 00 UTC - 24. päivään klo 04 UTC
Tuuli kn pohjoisesta
Näkyvyys: 3000 m
usvaa
From 24. päivästä klo 0400 UTC
Tuuli 7 kn lounaasta
Näkyvyys: 6000 m

TAF: OPKC 230400Z 2306/2412 28007KT 6000 NSC BECMG 2313/2315 31005KT 5000 HZ NSC TEMPO 2400/2404 00000KT 3000 HZ NSC FM240400 23007KT 6000 NSC

Säähavainnot ja -ennusteet yli 4000 lentoasemalta (METAR- ja TAF-raportit).

Käytössä olevat sääasemat on merkitty karttaan keltaisilla ja punaisilla pisteillä.

Aseta hiiri pisteen päälle nähdäksesi sääaseman nimen.

Klikkaa sitten nähdäksesi säähavainnot ja -ennusteet.

Kartan vaihtaminen: klikkaa mustalla rastilla varustettuja vihreitä pisteitä, niin voit zoomata sisään; viivalla varustettua vihreää pistettä, niin voit zoomata ulos tai vihreitä nuolia, niin pääset viereisille kartoille.


METAR-TAF: